createdAt,value
2019-03-11T00:01:48.182Z,99396.28
2019-03-11T00:04:15.212Z,99398.31
2019-03-11T00:06:41.803Z,99405.21
2019-03-11T00:09:07.950Z,99407.41
2019-03-11T00:11:34.203Z,99407.19
2019-03-11T00:14:00.340Z,99416.06
2019-03-11T00:16:26.508Z,99419.47
2019-03-11T00:18:52.650Z,99415.59
2019-03-11T00:21:18.802Z,99413.09
2019-03-11T00:23:44.965Z,99423.72
2019-03-11T00:26:11.149Z,99416.17
2019-03-11T00:28:37.315Z,99434.30
2019-03-11T00:31:03.733Z,99437.89
2019-03-11T00:33:29.897Z,99442.14
2019-03-11T00:35:56.034Z,99441.44
2019-03-11T00:38:22.208Z,99446.56
2019-03-11T00:40:48.361Z,99445.05
2019-03-11T00:43:14.559Z,99447.71
2019-03-11T00:45:40.700Z,99453.11
2019-03-11T00:48:06.879Z,99448.36
2019-03-11T00:50:33.044Z,99453.06
2019-03-11T00:52:59.542Z,99449.79
2019-03-11T00:55:25.676Z,99454.59
2019-03-11T00:57:51.829Z,99464.09
2019-03-11T01:00:34.854Z,99462.88
2019-03-11T01:03:01.018Z,99465.84
2019-03-11T01:05:27.503Z,99471.02
2019-03-11T01:07:53.694Z,99475.31
2019-03-11T01:10:20.449Z,99477.04
2019-03-11T01:12:46.609Z,99492.27
2019-03-11T01:15:12.960Z,99481.17
2019-03-11T01:17:42.006Z,99478.81
2019-03-11T01:20:10.448Z,99464.60
2019-03-11T01:22:36.610Z,99464.21
2019-03-11T01:25:06.759Z,99465.88
2019-03-11T01:27:33.036Z,99469.47
2019-03-11T01:29:59.177Z,99468.25
2019-03-11T01:32:25.329Z,99463.53
2019-03-11T01:34:51.482Z,99463.59
2019-03-11T01:37:17.895Z,99461.17
2019-03-11T01:39:44.059Z,99464.61
2019-03-11T01:42:10.191Z,99467.70
2019-03-11T01:44:36.360Z,99459.44
2019-03-11T01:47:02.515Z,99463.05
2019-03-11T01:49:28.670Z,99454.56
2019-03-11T01:51:55.146Z,99449.73
2019-03-11T01:54:21.306Z,99457.14
2019-03-11T01:56:47.452Z,99449.14
2019-03-11T01:59:13.656Z,99447.73
2019-03-11T02:01:39.795Z,99451.33
2019-03-11T02:04:05.951Z,99448.73
2019-03-11T02:06:32.477Z,99442.73
2019-03-11T02:08:58.638Z,99455.58
2019-03-11T02:11:24.787Z,99460.41
2019-03-11T02:13:51.543Z,99447.56
2019-03-11T02:16:17.698Z,99432.44
2019-03-11T02:18:43.898Z,99449.66
2019-03-11T02:21:10.041Z,99440.42
2019-03-11T02:23:36.205Z,99436.52
2019-03-11T02:26:02.338Z,99444.11
2019-03-11T02:28:28.778Z,99448.04
2019-03-11T02:30:54.922Z,99433.20
2019-03-11T02:33:21.095Z,99443.02
2019-03-11T02:35:47.262Z,99444.12
2019-03-11T02:38:13.440Z,99448.52
2019-03-11T02:40:39.619Z,99455.98
2019-03-11T02:43:05.762Z,99452.87
2019-03-11T02:45:31.901Z,99445.52
2019-03-11T02:47:58.032Z,99445.99
2019-03-11T02:50:24.214Z,99429.48
2019-03-11T02:52:50.610Z,99453.69
2019-03-11T02:55:16.782Z,99456.20
2019-03-11T02:57:43.202Z,99456.38
2019-03-11T03:00:15.096Z,99448.98
2019-03-11T03:02:43.165Z,99463.56
2019-03-11T03:05:17.681Z,99472.47
2019-03-11T03:07:43.833Z,99472.14
2019-03-11T03:10:10.022Z,99482.47
2019-03-11T03:12:36.172Z,99474.95
2019-03-11T03:15:04.917Z,99476.39
2019-03-11T03:17:31.071Z,99479.58
2019-03-11T03:19:57.242Z,99471.17
2019-03-11T03:22:23.371Z,99469.78
2019-03-11T03:24:49.660Z,99461.19
2019-03-11T03:27:16.127Z,99469.42
2019-03-11T03:29:42.287Z,99461.76
2019-03-11T03:32:08.427Z,99466.17
2019-03-11T03:34:34.602Z,99479.27
2019-03-11T03:37:00.748Z,99450.30
2019-03-11T03:39:26.928Z,99470.74
2019-03-11T03:41:53.062Z,99477.46
2019-03-11T03:44:19.249Z,99465.02
2019-03-11T03:46:45.400Z,99466.83
2019-03-11T03:49:11.570Z,99466.63
2019-03-11T03:51:37.720Z,99464.18
2019-03-11T03:54:03.998Z,99464.60
2019-03-11T03:56:30.526Z,99473.22
2019-03-11T03:58:57.135Z,99479.11
2019-03-11T04:01:23.552Z,99486.78
2019-03-11T04:03:49.943Z,99482.48
2019-03-11T04:06:16.116Z,99477.83
2019-03-11T04:08:42.702Z,99483.51
2019-03-11T04:11:08.881Z,99478.92
2019-03-11T04:13:35.017Z,99490.97
2019-03-11T04:16:01.204Z,99480.70
2019-03-11T04:18:47.089Z,99483.92
2019-03-11T04:21:13.295Z,99477.72
2019-03-11T04:23:39.456Z,99486.14
2019-03-11T04:26:05.739Z,99485.11
2019-03-11T04:28:31.874Z,99490.83
2019-03-11T04:30:58.034Z,99490.66
2019-03-11T04:33:24.170Z,99498.94
2019-03-11T04:35:50.341Z,99490.98
2019-03-11T04:38:16.486Z,99492.21
2019-03-11T04:40:42.697Z,99506.28
2019-03-11T04:43:08.858Z,99500.48
2019-03-11T04:45:35.081Z,99493.44
2019-03-11T04:48:01.456Z,99488.03
2019-03-11T04:50:27.627Z,99481.93
2019-03-11T04:52:53.772Z,99479.95
2019-03-11T04:55:20.215Z,99478.09
2019-03-11T04:57:54.921Z,99473.81
2019-03-11T05:00:36.261Z,99469.83
2019-03-11T05:03:02.511Z,99475.64
2019-03-11T05:05:28.687Z,99476.35
2019-03-11T05:07:54.839Z,99476.58
2019-03-11T05:10:21.267Z,99463.02
2019-03-11T05:12:47.411Z,99464.64
2019-03-11T05:15:13.790Z,99478.88
2019-03-11T05:17:40.327Z,99475.55
2019-03-11T05:20:14.465Z,99480.70
2019-03-11T05:22:41.175Z,99472.23
2019-03-11T05:25:13.313Z,99472.27
2019-03-11T05:27:39.691Z,99474.73
2019-03-11T05:30:19.057Z,99471.78
2019-03-11T05:32:45.294Z,99471.52
2019-03-11T05:35:12.023Z,99463.19
2019-03-11T05:37:38.621Z,99459.14
2019-03-11T05:40:13.762Z,99453.48
2019-03-11T05:42:39.943Z,99448.92
2019-03-11T05:45:10.737Z,99443.78
2019-03-11T05:47:37.079Z,99441.45
2019-03-11T05:50:08.974Z,99431.77
2019-03-11T05:52:35.133Z,99423.95
2019-03-11T05:55:01.301Z,99416.73
2019-03-11T05:57:27.431Z,99414.69
2019-03-11T05:59:53.592Z,99402.33
2019-03-11T06:02:19.788Z,99415.01
2019-03-11T06:04:45.947Z,99416.23
2019-03-11T06:07:12.124Z,99420.43
2019-03-11T06:09:38.317Z,99413.90
2019-03-11T06:12:04.484Z,99411.91
2019-03-11T06:14:30.643Z,99416.70
2019-03-11T06:17:16.818Z,99415.81
2019-03-11T06:19:42.969Z,99416.84
2019-03-11T06:22:11.094Z,99407.86
2019-03-11T06:24:37.226Z,99407.51
2019-03-11T06:27:03.408Z,99407.48
2019-03-11T06:29:30.813Z,99406.81
2019-03-11T06:31:57.252Z,99405.45
2019-03-11T06:34:23.393Z,99408.36
2019-03-11T06:36:49.567Z,99402.10
2019-03-11T06:39:15.728Z,99405.80
2019-03-11T06:41:41.908Z,99399.36
2019-03-11T06:44:08.050Z,99413.03
2019-03-11T06:46:34.524Z,99414.03
2019-03-11T06:49:00.654Z,99408.05
2019-03-11T06:51:26.831Z,99408.52
2019-03-11T06:53:53.247Z,99410.27
2019-03-11T06:56:19.446Z,99408.91
2019-03-11T06:58:45.602Z,99406.70
2019-03-11T07:01:11.764Z,99410.10
2019-03-11T07:03:38.262Z,99413.83
2019-03-11T07:06:04.702Z,99416.85
2019-03-11T07:08:30.866Z,99412.70
2019-03-11T07:10:57.025Z,99404.45
2019-03-11T07:13:23.200Z,99411.09
2019-03-11T07:15:49.365Z,99411.97
2019-03-11T07:18:15.522Z,99413.55
2019-03-11T07:20:41.707Z,99424.45
2019-03-11T07:23:07.842Z,99419.57
2019-03-11T07:25:34.008Z,99419.08
2019-03-11T07:28:00.634Z,99424.61
2019-03-11T07:30:27.650Z,99435.93
2019-03-11T07:32:53.807Z,99427.06
2019-03-11T07:35:20.007Z,99427.99
2019-03-11T07:37:46.174Z,99431.06
2019-03-11T07:40:14.414Z,99432.19
2019-03-11T07:42:40.584Z,99440.88
2019-03-11T07:45:09.937Z,99440.42
2019-03-11T07:47:36.098Z,99440.77
2019-03-11T07:50:05.478Z,99439.00
2019-03-11T07:52:31.656Z,99442.60
2019-03-11T07:54:57.819Z,99434.16
2019-03-11T07:57:23.989Z,99432.07
2019-03-11T07:59:50.113Z,99435.55
2019-03-11T08:02:18.299Z,99446.78
2019-03-11T08:04:44.339Z,99449.61
2019-03-11T08:07:10.508Z,99450.20
2019-03-11T08:09:38.211Z,99445.13
2019-03-11T08:12:04.934Z,99444.95
2019-03-11T08:14:31.070Z,99447.01
2019-03-11T08:16:57.244Z,99440.90
2019-03-11T08:19:23.388Z,99450.13
2019-03-11T08:21:49.554Z,99455.67
2019-03-11T08:24:16.666Z,99448.69
2019-03-11T08:26:42.965Z,99447.81
2019-03-11T08:29:09.212Z,99453.88
2019-03-11T08:31:35.386Z,99455.30
2019-03-11T08:34:01.513Z,99456.31
2019-03-11T08:36:29.972Z,99461.92
2019-03-11T08:38:56.301Z,99455.50
2019-03-11T08:41:22.467Z,99464.66
2019-03-11T08:43:48.614Z,99480.69
2019-03-11T08:46:14.819Z,99487.75
2019-03-11T08:48:40.945Z,99484.36
2019-03-11T08:51:07.440Z,99476.27
2019-03-11T08:53:33.972Z,99473.91
2019-03-11T08:56:00.121Z,99482.87
2019-03-11T08:58:26.315Z,99485.06
2019-03-11T09:00:52.464Z,99485.10
2019-03-11T09:03:18.636Z,99483.17
2019-03-11T09:05:44.775Z,99475.23
2019-03-11T09:08:10.949Z,99480.56
2019-03-11T09:10:37.088Z,99474.75
2019-03-11T09:13:03.365Z,99477.77
2019-03-11T09:15:29.896Z,99471.56
2019-03-11T09:17:56.144Z,99479.36
2019-03-11T09:20:22.278Z,99475.36
2019-03-11T09:22:48.676Z,99466.24
2019-03-11T09:25:19.686Z,99479.81
2019-03-11T09:27:45.862Z,99474.31
2019-03-11T09:30:15.702Z,99462.53
2019-03-11T09:32:41.869Z,99465.59
2019-03-11T09:35:08.481Z,99460.50
2019-03-11T09:37:34.636Z,99452.27
2019-03-11T09:40:01.035Z,99455.14
2019-03-11T09:42:27.292Z,99456.91
2019-03-11T09:44:53.425Z,99454.11
2019-03-11T09:47:19.600Z,99448.16
2019-03-11T09:49:45.737Z,99444.27
2019-03-11T09:52:12.243Z,99447.94
2019-03-11T09:54:38.375Z,99447.45
2019-03-11T09:57:04.570Z,99449.33
2019-03-11T09:59:30.709Z,99449.94
2019-03-11T10:01:56.896Z,99452.52
2019-03-11T10:04:23.060Z,99452.66
2019-03-11T10:06:49.223Z,99442.59
2019-03-11T10:09:15.362Z,99441.48
2019-03-11T10:11:41.526Z,99436.21
2019-03-11T10:14:07.664Z,99429.09
2019-03-11T10:16:33.865Z,99444.49
2019-03-11T10:19:00.708Z,99444.81
2019-03-11T10:21:27.146Z,99448.11
2019-03-11T10:23:53.535Z,99455.98
2019-03-11T10:26:19.687Z,99446.73
2019-03-11T10:28:45.850Z,99432.77
2019-03-11T10:31:12.289Z,99443.09
2019-03-11T10:33:38.453Z,99460.45
2019-03-11T10:36:04.629Z,99464.47
2019-03-11T10:38:30.795Z,99466.92
2019-03-11T10:40:56.946Z,99463.46
2019-03-11T10:43:23.469Z,99469.55
2019-03-11T10:45:49.621Z,99469.95
2019-03-11T10:48:16.082Z,99473.48
2019-03-11T10:50:42.249Z,99469.45
2019-03-11T10:53:08.712Z,99466.75
2019-03-11T10:55:34.994Z,99475.02
2019-03-11T10:58:05.015Z,99470.38
2019-03-11T11:00:32.455Z,99475.13
2019-03-11T11:03:00.807Z,99485.30
2019-03-11T11:05:27.101Z,99473.02
2019-03-11T11:07:53.586Z,99460.92
2019-03-11T11:10:20.133Z,99463.92
2019-03-11T11:12:46.435Z,99463.75
2019-03-11T11:15:18.972Z,99457.46
2019-03-11T11:17:45.170Z,99449.99
2019-03-11T11:20:17.274Z,99448.18
2019-03-11T11:22:43.471Z,99475.87
2019-03-11T11:25:18.234Z,99472.66
2019-03-11T11:27:44.412Z,99482.69
2019-03-11T11:30:15.260Z,99475.44
2019-03-11T11:32:41.431Z,99467.23
2019-03-11T11:35:08.161Z,99472.27
2019-03-11T11:37:34.337Z,99468.53
2019-03-11T11:40:00.490Z,99464.38
2019-03-11T11:42:26.791Z,99456.98
2019-03-11T11:44:52.918Z,99438.67
2019-03-11T11:47:19.095Z,99424.34
2019-03-11T11:49:45.231Z,99442.09
2019-03-11T11:52:11.370Z,99448.94
2019-03-11T11:54:37.669Z,99432.09
2019-03-11T11:57:03.807Z,99445.91
2019-03-11T11:59:30.093Z,99436.82
2019-03-11T12:02:03.647Z,99438.18
2019-03-11T12:04:24.424Z,99429.42
2019-03-11T12:06:50.619Z,99426.94
2019-03-11T12:09:16.759Z,99433.25
2019-03-11T12:11:42.955Z,99426.42
2019-03-11T12:14:09.357Z,99450.64
2019-03-11T12:16:35.538Z,99445.16
2019-03-11T12:19:01.672Z,99448.83
2019-03-11T12:21:27.828Z,99472.00
2019-03-11T12:23:54.000Z,99477.09
2019-03-11T12:26:20.188Z,99493.22
2019-03-11T12:28:46.655Z,99485.70
2019-03-11T12:31:12.817Z,99477.23
2019-03-11T12:33:39.299Z,99488.41
2019-03-11T12:36:05.593Z,99491.98
2019-03-11T12:38:31.731Z,99484.68
2019-03-11T12:40:57.862Z,99484.23
2019-03-11T12:43:24.092Z,99471.95
2019-03-11T12:45:50.322Z,99472.74
2019-03-11T12:48:16.499Z,99464.70
2019-03-11T12:50:42.654Z,99461.52
2019-03-11T12:53:09.218Z,99486.07
2019-03-11T12:55:35.649Z,99484.01
2019-03-11T12:58:01.826Z,99486.61
2019-03-11T13:00:27.997Z,99473.17
2019-03-11T13:02:54.164Z,99481.41
2019-03-11T13:05:20.589Z,99475.75
2019-03-11T13:07:47.074Z,99492.91
2019-03-11T13:10:21.774Z,99508.11
2019-03-11T13:12:48.221Z,99484.66
2019-03-11T13:15:16.265Z,99491.33
2019-03-11T13:17:42.449Z,99488.00
2019-03-11T13:20:22.689Z,99500.93
2019-03-11T13:22:50.469Z,99496.73
2019-03-11T13:25:16.972Z,99481.18
2019-03-11T13:27:43.177Z,99470.88
2019-03-11T13:30:14.980Z,99494.99
2019-03-11T13:32:41.165Z,99499.47
2019-03-11T13:35:09.830Z,99493.56
2019-03-11T13:37:35.981Z,99520.91
2019-03-11T13:40:07.382Z,99508.92
2019-03-11T13:42:33.580Z,99548.06
2019-03-11T13:44:59.714Z,99546.88
2019-03-11T13:47:25.911Z,99531.70
2019-03-11T13:49:52.146Z,99543.78
2019-03-11T13:52:18.322Z,99539.03
2019-03-11T13:54:44.462Z,99550.77
2019-03-11T13:57:10.947Z,99548.49
2019-03-11T13:59:37.175Z,99545.61
2019-03-11T14:02:03.357Z,99551.66
2019-03-11T14:04:29.790Z,99552.81
2019-03-11T14:06:55.962Z,99556.84
2019-03-11T14:09:22.143Z,99556.89
2019-03-11T14:11:48.238Z,99545.73
2019-03-11T14:14:14.410Z,99572.87
2019-03-11T14:16:40.548Z,99552.86
2019-03-11T14:19:07.015Z,99542.34
2019-03-11T14:21:33.135Z,99548.73
2019-03-11T14:23:59.300Z,99550.78
2019-03-11T14:26:25.456Z,99544.95
2019-03-11T14:28:51.624Z,99547.14
2019-03-11T14:31:17.777Z,99540.26
2019-03-11T14:33:43.952Z,99559.16
2019-03-11T14:36:10.097Z,99579.53
2019-03-11T14:38:36.285Z,99587.05
2019-03-11T14:41:02.750Z,99597.15
2019-03-11T14:43:29.162Z,99600.38
2019-03-11T14:45:55.327Z,99585.98
2019-03-11T14:48:21.503Z,99571.98
2019-03-11T14:50:47.665Z,99584.25
2019-03-11T14:53:13.880Z,99595.61
2019-03-11T14:55:40.020Z,99605.41
2019-03-11T14:58:06.220Z,99608.62
2019-03-11T15:00:32.623Z,99593.51
2019-03-11T15:02:58.804Z,99605.61
2019-03-11T15:05:24.941Z,99605.50
2019-03-11T15:07:51.101Z,99611.91
2019-03-11T15:10:18.039Z,99608.46
2019-03-11T15:12:44.505Z,99612.19
2019-03-11T15:15:22.536Z,99612.61
2019-03-11T15:17:48.709Z,99608.45
2019-03-11T15:20:14.959Z,99610.41
2019-03-11T15:22:41.098Z,99617.54
2019-03-11T15:25:12.328Z,99589.13
2019-03-11T15:27:38.576Z,99604.69
2019-03-11T15:30:23.585Z,99630.30
2019-03-11T15:32:49.745Z,99618.08
2019-03-11T15:35:16.109Z,99617.70
2019-03-11T15:37:42.477Z,99631.72
2019-03-11T15:40:15.692Z,99640.65
2019-03-11T15:42:41.833Z,99634.57
2019-03-11T15:45:14.686Z,99619.13
2019-03-11T15:47:41.098Z,99630.30
2019-03-11T15:50:12.394Z,99643.78
2019-03-11T15:52:38.547Z,99643.45
2019-03-11T15:55:09.947Z,99651.06
2019-03-11T15:57:39.221Z,99643.41
2019-03-11T16:00:17.807Z,99650.16
2019-03-11T16:02:44.242Z,99654.80
2019-03-11T16:05:10.518Z,99652.84
2019-03-11T16:07:36.669Z,99659.04
2019-03-11T16:10:16.247Z,99660.09
2019-03-11T16:12:35.610Z,99665.41
2019-03-11T16:15:01.976Z,99666.56
2019-03-11T16:17:28.113Z,99675.59
2019-03-11T16:19:54.270Z,99667.20
2019-03-11T16:22:24.306Z,99676.19
2019-03-11T16:24:48.906Z,99676.61
2019-03-11T16:27:15.041Z,99672.06
2019-03-11T16:29:41.205Z,99671.84
2019-03-11T16:32:07.354Z,99683.78
2019-03-11T16:34:33.525Z,99679.13
2019-03-11T16:36:59.672Z,99678.05
2019-03-11T16:39:25.839Z,99689.16
2019-03-11T16:41:52.242Z,99684.28
2019-03-11T16:44:18.498Z,99691.06
2019-03-11T16:46:44.642Z,99701.16
2019-03-11T16:49:11.248Z,99702.93
2019-03-11T16:51:37.401Z,99700.66
2019-03-11T16:54:03.580Z,99702.86
2019-03-11T16:56:32.825Z,99702.11
2019-03-11T16:58:59.004Z,99713.14
2019-03-11T17:01:25.155Z,99729.81
2019-03-11T17:03:51.298Z,99733.76
2019-03-11T17:06:17.485Z,99724.91
2019-03-11T17:08:43.649Z,99733.86
2019-03-11T17:11:10.137Z,99741.23
2019-03-11T17:13:36.265Z,99744.86
2019-03-11T17:16:03.108Z,99751.16
2019-03-11T17:18:29.590Z,99752.38
2019-03-11T17:20:55.841Z,99759.22
2019-03-11T17:23:21.942Z,99761.08
2019-03-11T17:25:48.113Z,99757.32
2019-03-11T17:28:14.262Z,99764.60
2019-03-11T17:30:40.449Z,99766.50
2019-03-11T17:33:08.129Z,99763.11
2019-03-11T17:35:34.328Z,99769.99
2019-03-11T17:38:00.467Z,99773.44
2019-03-11T17:40:27.117Z,99780.75
2019-03-11T17:42:53.631Z,99773.14
2019-03-11T17:45:19.838Z,99778.67
2019-03-11T17:47:46.104Z,99779.89
2019-03-11T17:50:15.297Z,99786.64
2019-03-11T17:52:41.643Z,99790.89
2019-03-11T17:55:10.025Z,99793.52
2019-03-11T17:57:36.528Z,99797.41
2019-03-11T18:00:25.700Z,99802.16
2019-03-11T18:02:52.682Z,99799.07
2019-03-11T18:05:19.095Z,99804.98
2019-03-11T18:07:45.237Z,99805.82
2019-03-11T18:10:11.925Z,99801.66
2019-03-11T18:12:38.087Z,99804.28
2019-03-11T18:15:08.060Z,99800.33
2019-03-11T18:17:34.203Z,99796.42
2019-03-11T18:20:00.697Z,99797.61
2019-03-11T18:22:27.029Z,99809.81
2019-03-11T18:30:44.170Z,99836.95
2019-03-11T18:33:10.326Z,99836.63
2019-03-11T18:35:36.779Z,99845.53
2019-03-11T18:38:04.712Z,99843.16
2019-03-11T18:40:31.370Z,99849.88
2019-03-11T18:42:57.523Z,99854.65
2019-03-11T18:45:23.720Z,99845.06
2019-03-11T18:47:49.869Z,99837.50
2019-03-11T18:50:23.645Z,99842.02
2019-03-11T18:52:49.841Z,99840.92
2019-03-11T18:55:16.505Z,99839.13
2019-03-11T18:57:42.693Z,99835.52
2019-03-11T19:00:13.670Z,99838.13
2019-03-11T19:02:39.881Z,99848.17
2019-03-11T19:05:13.911Z,99853.78
2019-03-11T19:07:40.188Z,99859.66
2019-03-11T19:10:10.708Z,99861.74
2019-03-11T19:12:36.839Z,99864.08
2019-03-11T19:15:08.112Z,99857.33
2019-03-11T19:17:34.256Z,99852.66
2019-03-11T19:20:00.418Z,99865.09
2019-03-11T19:22:26.603Z,99863.13
2019-03-11T19:24:52.853Z,99860.26
2019-03-11T19:27:19.036Z,99864.88
2019-03-11T19:29:45.458Z,99864.77
2019-03-11T19:32:12.141Z,99866.81
2019-03-11T19:34:38.317Z,99867.72
2019-03-11T19:37:04.513Z,99859.69
2019-03-11T19:39:30.674Z,99866.27
2019-03-11T19:41:56.861Z,99875.00
2019-03-11T19:44:23.017Z,99873.53
2019-03-11T19:46:49.179Z,99867.91
2019-03-11T19:49:15.325Z,99867.00
2019-03-11T19:51:41.500Z,99862.07
2019-03-11T19:54:07.724Z,99861.67
2019-03-11T19:56:33.919Z,99856.31
2019-03-11T19:59:00.070Z,99857.56
2019-03-11T20:01:26.204Z,99855.34
2019-03-11T20:03:52.408Z,99846.74
2019-03-11T20:06:19.046Z,99849.27
2019-03-11T20:08:45.151Z,99859.95
2019-03-11T20:11:11.366Z,99857.50
2019-03-11T20:13:39.298Z,99860.59
2019-03-11T20:16:05.546Z,99860.73
2019-03-11T20:18:31.713Z,99861.43
2019-03-11T20:20:58.252Z,99869.48
2019-03-11T20:23:24.454Z,99870.23
2019-03-11T20:25:50.609Z,99879.41
2019-03-11T20:28:16.789Z,99883.64
2019-03-11T20:30:45.513Z,99883.42
2019-03-11T20:33:13.622Z,99884.33
2019-03-11T20:35:39.822Z,99884.58
2019-03-11T20:38:05.973Z,99877.07
2019-03-11T20:40:33.013Z,99886.64
2019-03-11T20:42:59.242Z,99896.30
2019-03-11T20:45:25.436Z,99890.70
2019-03-11T20:47:51.739Z,99906.82
2019-03-11T20:50:18.050Z,99902.09
2019-03-11T20:52:44.215Z,99908.71
2019-03-11T20:55:14.085Z,99919.56
2019-03-11T20:57:40.272Z,99923.72
2019-03-11T21:00:20.669Z,99931.81
2019-03-11T21:02:47.173Z,99940.63
2019-03-11T21:05:29.991Z,99951.27
2019-03-11T21:07:56.207Z,99927.80
2019-03-11T21:10:22.467Z,99950.52
2019-03-11T21:12:48.654Z,99973.45
2019-03-11T21:15:15.728Z,99973.59
2019-03-11T21:17:41.908Z,99977.72
2019-03-11T21:20:14.439Z,99980.11
2019-03-11T21:22:42.457Z,99988.11
2019-03-11T21:25:17.146Z,99984.38
2019-03-11T21:27:43.726Z,99979.39
2019-03-11T21:30:20.665Z,99989.23
2019-03-11T21:32:47.044Z,99975.40
2019-03-11T21:35:13.815Z,99989.42
2019-03-11T21:37:40.383Z,99998.18
2019-03-11T21:40:11.579Z,99991.08
2019-03-11T21:42:38.259Z,99983.80
2019-03-11T21:45:09.112Z,99987.70
2019-03-11T21:47:35.286Z,99996.64
2019-03-11T21:50:04.796Z,100007.84
2019-03-11T21:52:31.127Z,100001.31
2019-03-11T21:54:57.327Z,100013.98
2019-03-11T21:57:23.665Z,100016.97
2019-03-11T21:59:50.156Z,100020.98
2019-03-11T22:02:16.319Z,100020.15
2019-03-11T22:04:42.577Z,100031.93
2019-03-11T22:07:08.764Z,100037.19
2019-03-11T22:09:34.901Z,100038.83
2019-03-11T22:12:01.084Z,100043.16
2019-03-11T22:14:27.244Z,100054.63
2019-03-11T22:16:53.405Z,100056.66
2019-03-11T22:19:19.549Z,100069.54
2019-03-11T22:21:45.698Z,100076.69
2019-03-11T22:24:11.881Z,100076.92
2019-03-11T22:26:38.034Z,100073.72
2019-03-11T22:29:04.274Z,100102.13
2019-03-11T22:31:30.452Z,100113.34
2019-03-11T22:33:56.607Z,100126.36
2019-03-11T22:36:23.125Z,100123.02
2019-03-11T22:38:49.290Z,100132.56
2019-03-11T22:41:15.434Z,100142.62
2019-03-11T22:43:41.632Z,100146.12
2019-03-11T22:46:07.771Z,100157.01
2019-03-11T22:48:34.385Z,100165.16
2019-03-11T22:51:00.526Z,100161.93
2019-03-11T22:53:26.686Z,100163.34
2019-03-11T22:55:52.873Z,100162.20
2019-03-11T22:58:19.434Z,100163.73
2019-03-11T23:00:57.890Z,100165.07
2019-03-11T23:03:24.860Z,100168.73
2019-03-11T23:05:57.738Z,100174.30
2019-03-11T23:08:19.670Z,100167.61
2019-03-11T23:10:45.922Z,100171.09
2019-03-11T23:13:12.406Z,100171.16
2019-03-11T23:15:38.565Z,100186.68
2019-03-11T23:18:04.786Z,100195.63
2019-03-11T23:20:30.931Z,100205.00
2019-03-11T23:22:57.115Z,100204.56
2019-03-11T23:25:23.568Z,100205.52
2019-03-11T23:27:50.286Z,100210.77
2019-03-11T23:30:16.651Z,100209.94
2019-03-11T23:32:43.255Z,100213.47
2019-03-11T23:35:10.163Z,100220.44
2019-03-11T23:37:36.327Z,100225.37
2019-03-11T23:40:04.968Z,100232.62
2019-03-11T23:42:31.106Z,100241.58
2019-03-11T23:44:57.285Z,100241.63
2019-03-11T23:47:23.428Z,100246.41
2019-03-11T23:49:49.611Z,100247.80
2019-03-11T23:52:15.755Z,100244.00
2019-03-11T23:54:42.030Z,100252.45
2019-03-11T23:57:08.201Z,100264.02
2019-03-11T23:59:34.375Z,100271.98
